Danos Z — D5HG8 — position and weather

sailwx.info

Track history (hours):
 
Tides and Currents Weather Stations Pressure Air Temp Water Temp Dewpoint Dewpoint Depression Visibility Wind Speed Wind Dir Waves Ship Positions

Danos Z

Last reported at 2017-Nov-29 12:07 UTC. Time now 2017-Dec-17 12:12 UTC.
Position S 30°28' E 030°50'.
Warning: this ship's position is 18 days out of date.

Length 190 m; draft 6 m.

Type: Cargo ship. MMSI: 636016682.

Date/timePositionNaut miles runAvg speedWind from/ knotsBaromVisibWave heightAir tempDewpointWater temp
2017-Nov-29 12:07S 30°28' E 030°50'111.0
2017-Nov-29 12:00S 30°27' E 030°51'510.9
2017-Nov-29 11:30S 30°22' E 030°53'510.7
2017-Nov-29 11:01S 30°17' E 030°56'510.4
2017-Nov-29 10:30S 30°12' E 030°58'510.1
2017-Nov-29 10:01S 30°08' E 031°01'5 9.8
2017-Nov-29 09:31S 30°03' E 031°04'5 9.6
2017-Nov-29 09:00S 29°59' E 031°07'5 9.2
2017-Nov-29 08:31S 29°55' E 031°09'4 8.7
2017-Nov-29 08:00S 29°51' E 031°06'4 7.4
2017-Nov-29 07:31S 29°53' E 031°02'0 0.9
2017-Nov-29 06:57S 29°52' E 031°02'0 0.0
2017-Nov-29 06:30S 29°52' E 031°02'0 0.0
2017-Nov-29 06:00S 29°52' E 031°02'0 0.0
2017-Nov-29 05:30S 29°52' E 031°02'0 0.0
2017-Nov-29 05:00S 29°52' E 031°02'0 0.0
2017-Nov-29 04:30S 29°52' E 031°02'0 0.0
2017-Nov-29 04:00S 29°52' E 031°02'0 0.0
2017-Nov-29 03:30S 29°52' E 031°02'0 0.0
2017-Nov-29 03:00S 29°52' E 031°02'0 0.0
2017-Nov-29 02:30S 29°52' E 031°02'0 0.0
2017-Nov-29 02:00S 29°52' E 031°02'0 0.0
2017-Nov-29 01:30S 29°52' E 031°02'0 0.0
2017-Nov-29 01:00S 29°52' E 031°02'0 0.0
2017-Nov-29 00:24S 29°52' E 031°02'0 0.0
2017-Nov-28 23:57S 29°52' E 031°02'0 0.0
2017-Nov-28 23:30S 29°52' E 031°02'0 0.0
2017-Nov-28 22:59S 29°52' E 031°02'0 0.0
2017-Nov-28 22:29S 29°52' E 031°02'0 0.0
2017-Nov-28 21:59S 29°52' E 031°02'0 0.0
2017-Nov-28 21:29S 29°52' E 031°02'0 0.0
2017-Nov-28 20:59S 29°52' E 031°02'0 0.0
2017-Nov-28 20:29S 29°52' E 031°02'0 0.0
2017-Nov-28 19:56S 29°52' E 031°02'0 0.0
2017-Nov-28 19:29S 29°52' E 031°02'0 0.0
2017-Nov-28 18:59S 29°52' E 031°02'0 0.0
2017-Nov-28 18:29S 29°52' E 031°02'0 0.3
2017-Nov-28 18:00S 29°52' E 031°02'3 6.1
2017-Nov-28 17:30S 29°51' E 031°05'2 4.7
2017-Nov-28 17:00S 29°49' E 031°07'1 1.5
2017-Nov-28 16:30S 29°50' E 031°08'2 4.3
2017-Nov-28 16:00S 29°51' E 031°09'1 0.8
2017-Nov-28 15:00S 29°51' E 031°09'1 2.3
2017-Nov-28 14:30S 29°52' E 031°08'0 1.0
2017-Nov-28 14:00S 29°52' E 031°08'2 3.4
2017-Nov-28 13:30S 29°51' E 031°09'510.4
2017-Nov-28 13:00S 29°49' E 031°14'612.6
2017-Nov-28 12:30S 29°45' E 031°21'713.3
2017-Nov-28 12:00S 29°41' E 031°27'713.3
2017-Nov-28 11:30S 29°37' E 031°33'713.2
2017-Nov-28 11:00S 29°33' E 031°39'713.2
2017-Nov-28 10:30S 29°29' E 031°45'713.1
2017-Nov-28 10:00S 29°25' E 031°50'713.5
2017-Nov-28 09:30S 29°21' E 031°56'  
Track history (hours):
 
Tides and Currents Weather Stations Pressure Air Temp Water Temp Dewpoint Dewpoint Depression Visibility Wind Speed Wind Dir Waves Ship Positions

Danos Z

Last reported at 2017-Nov-29 12:07 UTC. Time now 2017-Dec-17 12:12 UTC.
Position S 30°28' E 030°50'.
Warning: this ship's position is 18 days out of date.

Length 190 m; draft 6 m.

Type: Cargo ship. MMSI: 636016682.

Date/timePositionNaut miles runAvg speedWind from/ knotsBaromVisibWave heightAir tempDewpointWater temp
2017-Nov-29 12:07S 30°28' E 030°50'111.0
2017-Nov-29 12:00S 30°27' E 030°51'510.9
2017-Nov-29 11:30S 30°22' E 030°53'510.7
2017-Nov-29 11:01S 30°17' E 030°56'510.4
2017-Nov-29 10:30S 30°12' E 030°58'510.1
2017-Nov-29 10:01S 30°08' E 031°01'5 9.8
2017-Nov-29 09:31S 30°03' E 031°04'5 9.6
2017-Nov-29 09:00S 29°59' E 031°07'5 9.2
2017-Nov-29 08:31S 29°55' E 031°09'4 8.7
2017-Nov-29 08:00S 29°51' E 031°06'4 7.4
2017-Nov-29 07:31S 29°53' E 031°02'0 0.9
2017-Nov-29 06:57S 29°52' E 031°02'0 0.0
2017-Nov-29 06:30S 29°52' E 031°02'0 0.0
2017-Nov-29 06:00S 29°52' E 031°02'0 0.0
2017-Nov-29 05:30S 29°52' E 031°02'0 0.0
2017-Nov-29 05:00S 29°52' E 031°02'0 0.0
2017-Nov-29 04:30S 29°52' E 031°02'0 0.0
2017-Nov-29 04:00S 29°52' E 031°02'0 0.0
2017-Nov-29 03:30S 29°52' E 031°02'0 0.0
2017-Nov-29 03:00S 29°52' E 031°02'0 0.0
2017-Nov-29 02:30S 29°52' E 031°02'0 0.0
2017-Nov-29 02:00S 29°52' E 031°02'0 0.0
2017-Nov-29 01:30S 29°52' E 031°02'0 0.0
2017-Nov-29 01:00S 29°52' E 031°02'0 0.0
2017-Nov-29 00:24S 29°52' E 031°02'0 0.0
2017-Nov-28 23:57S 29°52' E 031°02'0 0.0
2017-Nov-28 23:30S 29°52' E 031°02'0 0.0
2017-Nov-28 22:59S 29°52' E 031°02'0 0.0
2017-Nov-28 22:29S 29°52' E 031°02'0 0.0
2017-Nov-28 21:59S 29°52' E 031°02'0 0.0
2017-Nov-28 21:29S 29°52' E 031°02'0 0.0
2017-Nov-28 20:59S 29°52' E 031°02'0 0.0
2017-Nov-28 20:29S 29°52' E 031°02'0 0.0
2017-Nov-28 19:56S 29°52' E 031°02'0 0.0
2017-Nov-28 19:29S 29°52' E 031°02'0 0.0
2017-Nov-28 18:59S 29°52' E 031°02'0 0.0
2017-Nov-28 18:29S 29°52' E 031°02'0 0.3
2017-Nov-28 18:00S 29°52' E 031°02'3 6.1
2017-Nov-28 17:30S 29°51' E 031°05'2 4.7
2017-Nov-28 17:00S 29°49' E 031°07'1 1.5
2017-Nov-28 16:30S 29°50' E 031°08'2 4.3
2017-Nov-28 16:00S 29°51' E 031°09'1 0.8
2017-Nov-28 15:00S 29°51' E 031°09'1 2.3
2017-Nov-28 14:30S 29°52' E 031°08'0 1.0
2017-Nov-28 14:00S 29°52' E 031°08'2 3.4
2017-Nov-28 13:30S 29°51' E 031°09'510.4
2017-Nov-28 13:00S 29°49' E 031°14'612.6
2017-Nov-28 12:30S 29°45' E 031°21'713.3
2017-Nov-28 12:00S 29°41' E 031°27'713.3
2017-Nov-28 11:30S 29°37' E 031°33'713.2
2017-Nov-28 11:00S 29°33' E 031°39'713.2
2017-Nov-28 10:30S 29°29' E 031°45'713.1
2017-Nov-28 10:00S 29°25' E 031°50'713.5
2017-Nov-28 09:30S 29°21' E 031°56'  

Dump ship's entire track history